Three Quarter Time — WDH8614 — position and weather

sailwx.info

Track history (hours):
 
Tides and Currents Weather Stations Pressure Air Temp Water Temp Dewpoint Dewpoint Depression Visibility Wind Speed Wind Dir Waves Ship Positions

Three Quarter Time

Owner: Wright Jr, Paul E, North Pole, AK. More information available from US FCC via Universal Licensing System and Coast Guard Vessel Documentation Center.

Last reported at 2017-Oct-22 19:05 UTC. Time now 2017-Nov-21 17:20 UTC.
Position N 32°48' W 117°21'.
Warning: this ship's position is 29 days out of date.

Length 14 m.

Type: Sailing vessel. MMSI: 367659820.

Date/timePositionNaut miles runAvg speedWind from/ knotsBaromVisibWave heightAir tempDewpointWater temp
2017-Oct-22 19:05N 32°48' W 117°21'0 5.8
2017-Oct-22 19:00N 32°48' W 117°21'3 6.0
2017-Oct-22 18:30N 32°51' W 117°21'3 5.9
2017-Oct-22 18:00N 32°54' W 117°21'3 6.1
2017-Oct-22 17:30N 32°57' W 117°22'3 6.1
2017-Oct-22 17:00N 33°00' W 117°22'3 6.0
2017-Oct-22 16:30N 33°03' W 117°23'3 6.2
2017-Oct-22 16:00N 33°06' W 117°23'3 5.4
2017-Oct-22 15:30N 33°09' W 117°23'1 3.0
2017-Oct-22 15:00N 33°10' W 117°24'2 0.1
2017-Oct-21 18:53N 33°12' W 117°25'2 5.7
2017-Oct-21 18:30N 33°13' W 117°27'3 5.8
2017-Oct-21 17:57N 33°15' W 117°30'  
2017-Oct-16 18:59N 33°44' W 118°07'3 4.8
2017-Oct-16 18:23N 33°45' W 118°10'0 0.0
2017-Oct-14 20:31N 33°45' W 118°11'1 5.9
2017-Oct-14 20:24N 33°45' W 118°11'2 6.0
2017-Oct-14 20:00N 33°42' W 118°11'3 6.0
2017-Oct-14 19:30N 33°42' W 118°15'3 5.7
2017-Oct-14 18:57N 33°42' W 118°19'3 5.7
2017-Oct-14 18:30N 33°43' W 118°22'4 5.7
2017-Oct-14 17:53N 33°44' W 118°25'  
Track history (hours):
 
Tides and Currents Weather Stations Pressure Air Temp Water Temp Dewpoint Dewpoint Depression Visibility Wind Speed Wind Dir Waves Ship Positions

Three Quarter Time

Owner: Wright Jr, Paul E, North Pole, AK. More information available from US FCC via Universal Licensing System and Coast Guard Vessel Documentation Center.

Last reported at 2017-Oct-22 19:05 UTC. Time now 2017-Nov-21 17:20 UTC.
Position N 32°48' W 117°21'.
Warning: this ship's position is 29 days out of date.

Length 14 m.

Type: Sailing vessel. MMSI: 367659820.

Date/timePositionNaut miles runAvg speedWind from/ knotsBaromVisibWave heightAir tempDewpointWater temp
2017-Oct-22 19:05N 32°48' W 117°21'0 5.8
2017-Oct-22 19:00N 32°48' W 117°21'3 6.0
2017-Oct-22 18:30N 32°51' W 117°21'3 5.9
2017-Oct-22 18:00N 32°54' W 117°21'3 6.1
2017-Oct-22 17:30N 32°57' W 117°22'3 6.1
2017-Oct-22 17:00N 33°00' W 117°22'3 6.0
2017-Oct-22 16:30N 33°03' W 117°23'3 6.2
2017-Oct-22 16:00N 33°06' W 117°23'3 5.4
2017-Oct-22 15:30N 33°09' W 117°23'1 3.0
2017-Oct-22 15:00N 33°10' W 117°24'2 0.1
2017-Oct-21 18:53N 33°12' W 117°25'2 5.7
2017-Oct-21 18:30N 33°13' W 117°27'3 5.8
2017-Oct-21 17:57N 33°15' W 117°30'  
2017-Oct-16 18:59N 33°44' W 118°07'3 4.8
2017-Oct-16 18:23N 33°45' W 118°10'0 0.0
2017-Oct-14 20:31N 33°45' W 118°11'1 5.9
2017-Oct-14 20:24N 33°45' W 118°11'2 6.0
2017-Oct-14 20:00N 33°42' W 118°11'3 6.0
2017-Oct-14 19:30N 33°42' W 118°15'3 5.7
2017-Oct-14 18:57N 33°42' W 118°19'3 5.7
2017-Oct-14 18:30N 33°43' W 118°22'4 5.7
2017-Oct-14 17:53N 33°44' W 118°25'  

Dump ship's entire track history